Atlantic, Maine
Current Conditions -  °F | °C
As of 1:35 PM on Saturday 25 Oct 2014 (Local Time) from KBHB Reporting Station
Clear Clear  
Wind Chill: 57°   Ceiling: Unl
Heat Index: 57°   Visibility: 10mi
Dew Point: 36°   Wind: 8mph
Humidity: 44%   Direction: 360°N
Pressure: 29.57"   Gusts: NA
Location:  44.1716°N, 68.4245°W
Report Text: KBHB 251735Z AUTO 36007KT 10SM CLR 14/02 A2957 RMK AO1
Loading
Personal Weather Stations






























Interactive Weather Map New forecast layout! Learn more

10-Day Weather Forecast

Advertisements
Track Severe Weather on mobile